createdAt,value
2023-05-23T00:01:55.084Z,62.04
2023-05-23T00:04:22.565Z,62.69
2023-05-23T00:06:50.744Z,62.26
2023-05-23T00:09:18.403Z,62.53
2023-05-23T00:11:45.944Z,63.09
2023-05-23T00:14:14.992Z,63.36
2023-05-23T00:16:44.046Z,63.50
2023-05-23T00:19:12.580Z,63.14
2023-05-23T00:21:39.758Z,64.27
2023-05-23T00:24:07.392Z,63.61
2023-05-23T00:26:34.647Z,63.72
2023-05-23T00:29:01.902Z,64.15
2023-05-23T00:31:29.132Z,64.14
2023-05-23T00:33:56.316Z,63.56
2023-05-23T00:36:23.687Z,64.76
2023-05-23T00:38:50.845Z,64.91
2023-05-23T00:41:20.921Z,64.79
2023-05-23T00:43:48.776Z,63.83
2023-05-23T00:46:16.472Z,64.30
2023-05-23T00:48:43.762Z,64.00
2023-05-23T00:51:11.081Z,65.08
2023-05-23T00:53:38.488Z,65.69
2023-05-23T00:56:05.975Z,64.05
2023-05-23T00:58:33.227Z,65.50
2023-05-23T01:01:00.538Z,64.73
2023-05-23T01:03:28.772Z,65.02
2023-05-23T01:05:56.723Z,64.52
2023-05-23T01:08:24.206Z,63.37
2023-05-23T01:10:52.263Z,65.13
2023-05-23T01:13:43.143Z,64.49
2023-05-23T01:16:19.562Z,65.35
2023-05-23T01:18:54.342Z,65.47
2023-05-23T01:21:23.025Z,64.62
2023-05-23T01:24:11.419Z,64.91
2023-05-23T01:26:54.348Z,65.42
2023-05-23T01:29:29.604Z,66.69
2023-05-23T01:31:58.296Z,66.17
2023-05-23T01:34:25.530Z,66.50
2023-05-23T01:36:56.486Z,66.19
2023-05-23T01:39:23.945Z,65.79
2023-05-23T01:41:52.652Z,66.40
2023-05-23T01:44:21.412Z,66.27
2023-05-23T01:46:48.771Z,65.46
2023-05-23T01:49:17.378Z,66.31
2023-05-23T01:51:45.595Z,68.46
2023-05-23T01:54:14.374Z,67.09
2023-05-23T01:56:43.000Z,67.65
2023-05-23T01:59:10.360Z,68.27
2023-05-23T02:01:38.623Z,66.99
2023-05-23T02:04:06.726Z,66.41
2023-05-23T02:06:34.248Z,67.16
2023-05-23T02:09:01.488Z,67.39
2023-05-23T02:11:28.714Z,68.73
2023-05-23T02:13:55.911Z,67.79
2023-05-23T02:16:23.293Z,67.78
2023-05-23T02:18:52.793Z,65.93
2023-05-23T02:21:20.152Z,69.11
2023-05-23T02:23:47.380Z,68.42
2023-05-23T02:26:18.019Z,69.45
2023-05-23T02:28:45.283Z,69.13
2023-05-23T02:31:12.551Z,69.92
2023-05-23T02:33:39.855Z,69.41
2023-05-23T02:36:07.278Z,69.46
2023-05-23T02:38:34.472Z,68.86
2023-05-23T02:41:01.693Z,68.66
2023-05-23T02:43:29.662Z,68.06
2023-05-23T02:45:56.934Z,67.81
2023-05-23T02:48:24.095Z,67.82
2023-05-23T02:50:51.421Z,68.21
2023-05-23T02:53:18.662Z,67.45
2023-05-23T02:55:45.982Z,69.51
2023-05-23T02:58:13.256Z,70.38
2023-05-23T03:00:40.387Z,69.42
2023-05-23T03:03:07.865Z,68.90
2023-05-23T03:05:36.425Z,69.14
2023-05-23T03:08:03.642Z,68.63
2023-05-23T03:10:30.753Z,67.75
2023-05-23T03:12:57.958Z,67.94
2023-05-23T03:15:25.230Z,67.74
2023-05-23T03:17:52.427Z,68.68
2023-05-23T03:20:19.676Z,67.76
2023-05-23T03:22:46.904Z,67.44
2023-05-23T03:25:16.254Z,68.31
2023-05-23T03:27:43.420Z,68.88
2023-05-23T03:30:11.039Z,67.70
2023-05-23T03:32:38.441Z,65.92
2023-05-23T03:35:06.325Z,67.09
2023-05-23T03:37:33.530Z,67.82
2023-05-23T03:40:01.034Z,67.55
2023-05-23T03:42:28.622Z,68.05
2023-05-23T03:44:56.692Z,67.06
2023-05-23T03:47:24.293Z,67.92
2023-05-23T03:49:51.700Z,66.22
2023-05-23T03:52:19.013Z,69.49
2023-05-23T03:54:46.731Z,69.23
2023-05-23T03:57:13.960Z,68.83
2023-05-23T03:59:41.454Z,68.32
2023-05-23T04:02:11.760Z,68.83
2023-05-23T04:04:39.620Z,68.62
2023-05-23T04:07:08.415Z,69.10
2023-05-23T04:09:35.670Z,69.01
2023-05-23T04:12:06.068Z,68.25
2023-05-23T04:14:33.706Z,67.52
2023-05-23T04:17:01.532Z,68.83
2023-05-23T04:19:29.874Z,69.38
2023-05-23T04:21:57.369Z,68.18
2023-05-23T04:24:24.622Z,68.49
2023-05-23T04:26:52.050Z,69.51
2023-05-23T04:29:19.311Z,67.67
2023-05-23T04:31:46.724Z,68.12
2023-05-23T04:34:14.903Z,67.59
2023-05-23T04:36:44.710Z,67.57
2023-05-23T04:39:12.543Z,66.45
2023-05-23T04:41:54.479Z,66.43
2023-05-23T04:44:42.883Z,66.90
2023-05-23T04:47:15.878Z,67.45
2023-05-23T04:49:54.963Z,67.46
2023-05-23T04:52:22.211Z,68.49
2023-05-23T04:54:50.197Z,68.22
2023-05-23T04:57:17.593Z,68.11
2023-05-23T04:59:44.976Z,68.08
2023-05-23T05:02:12.137Z,66.77
2023-05-23T05:04:39.422Z,66.54
2023-05-23T05:07:06.747Z,67.96
2023-05-23T05:09:34.759Z,68.85
2023-05-23T05:12:02.049Z,67.18
2023-05-23T05:14:31.218Z,67.00
2023-05-23T05:16:58.578Z,68.63
2023-05-23T05:19:32.949Z,68.79
2023-05-23T05:22:00.284Z,69.07
2023-05-23T05:24:29.013Z,69.24
2023-05-23T05:26:56.168Z,67.08
2023-05-23T05:29:24.431Z,67.55
2023-05-23T05:31:53.300Z,65.84
2023-05-23T05:34:21.183Z,64.70
2023-05-23T05:36:48.493Z,65.27
2023-05-23T05:39:18.075Z,65.09
2023-05-23T05:41:45.353Z,63.88
2023-05-23T05:44:14.611Z,65.83
2023-05-23T05:46:41.951Z,63.78
2023-05-23T05:49:10.306Z,63.60
2023-05-23T05:51:39.303Z,63.76
2023-05-23T05:54:06.727Z,64.73
2023-05-23T05:56:34.065Z,65.65
2023-05-23T05:59:01.833Z,64.78
2023-05-23T06:01:30.778Z,64.34
2023-05-23T06:03:58.552Z,64.00
2023-05-23T06:06:26.383Z,63.94
2023-05-23T06:08:54.297Z,63.96
2023-05-23T06:11:21.403Z,63.30
2023-05-23T06:13:48.586Z,63.04
2023-05-23T06:16:15.794Z,62.78
2023-05-23T06:18:45.015Z,63.28
2023-05-23T06:21:12.535Z,61.77
2023-05-23T06:23:39.695Z,61.50
2023-05-23T06:26:10.600Z,61.87
2023-05-23T06:28:41.992Z,61.39
2023-05-23T06:31:12.249Z,61.41
2023-05-23T06:33:39.524Z,61.72
2023-05-23T06:36:06.880Z,61.06
2023-05-23T06:38:34.085Z,61.22
2023-05-23T06:41:02.397Z,62.00
2023-05-23T06:43:30.658Z,61.76
2023-05-23T06:46:13.992Z,60.87
2023-05-23T06:48:41.174Z,60.62
2023-05-23T06:51:10.410Z,61.32
2023-05-23T06:53:38.021Z,61.81
2023-05-23T06:56:05.444Z,61.64
2023-05-23T06:58:38.956Z,60.65
2023-05-23T07:01:07.160Z,61.13
2023-05-23T07:03:41.517Z,60.54
2023-05-23T07:06:09.960Z,61.15
2023-05-23T07:08:38.665Z,62.91
2023-05-23T07:11:06.775Z,62.92
2023-05-23T07:13:40.269Z,62.52
2023-05-23T07:16:09.623Z,62.56
2023-05-23T07:18:46.391Z,62.60
2023-05-23T07:21:13.559Z,61.92
2023-05-23T07:23:40.789Z,62.55
2023-05-23T07:26:09.729Z,62.91
2023-05-23T07:28:51.391Z,61.39
2023-05-23T07:31:18.727Z,61.92
2023-05-23T07:33:45.960Z,62.63
2023-05-23T07:36:20.019Z,62.29
2023-05-23T07:38:47.318Z,61.95
2023-05-23T07:41:14.957Z,61.92
2023-05-23T07:43:42.095Z,61.38
2023-05-23T07:46:09.698Z,62.24
2023-05-23T07:48:38.333Z,62.28
2023-05-23T07:51:05.939Z,60.93
2023-05-23T07:53:33.773Z,60.85
2023-05-23T07:56:03.906Z,60.37
2023-05-23T07:58:36.227Z,60.79
2023-05-23T08:01:03.568Z,60.95
2023-05-23T08:03:57.619Z,62.04
2023-05-23T08:06:31.799Z,60.97
2023-05-23T08:09:02.017Z,61.33
2023-05-23T08:11:31.267Z,60.66
2023-05-23T08:14:01.256Z,60.57
2023-05-23T08:16:37.806Z,60.54
2023-05-23T08:19:10.410Z,61.39
2023-05-23T08:21:38.373Z,59.62
2023-05-23T08:24:05.818Z,58.30
2023-05-23T08:26:37.469Z,58.85
2023-05-23T08:29:06.642Z,59.17
2023-05-23T08:31:36.623Z,59.16
2023-05-23T08:34:05.084Z,57.95
2023-05-23T08:36:34.169Z,59.04
2023-05-23T08:39:02.062Z,57.73
2023-05-23T08:41:32.367Z,57.35
2023-05-23T08:44:06.278Z,57.97
2023-05-23T08:46:42.909Z,57.91
2023-05-23T08:49:10.790Z,57.72
2023-05-23T08:51:38.492Z,58.03
2023-05-23T08:54:14.910Z,59.32
2023-05-23T08:56:43.908Z,57.12
2023-05-23T08:59:12.896Z,56.90
2023-05-23T09:01:42.155Z,57.64
2023-05-23T09:04:12.209Z,57.29
2023-05-23T09:06:48.208Z,56.51
2023-05-23T09:09:15.515Z,56.36
2023-05-23T09:11:45.798Z,57.08
2023-05-23T09:14:14.682Z,56.99
2023-05-23T09:16:46.864Z,56.82
2023-05-23T09:19:16.490Z,56.35
2023-05-23T09:21:53.311Z,55.83
2023-05-23T09:24:33.915Z,57.25
2023-05-23T09:27:01.764Z,56.48
2023-05-23T09:29:29.226Z,57.79
2023-05-23T09:32:19.799Z,55.84
2023-05-23T09:35:03.220Z,55.84
2023-05-23T09:37:32.924Z,54.72
2023-05-23T09:40:01.929Z,55.25
2023-05-23T09:42:34.177Z,54.61
2023-05-23T09:45:03.987Z,54.29
2023-05-23T09:47:32.347Z,55.10
2023-05-23T09:49:59.505Z,56.08
2023-05-23T09:52:27.088Z,55.01
2023-05-23T09:54:54.582Z,55.42
2023-05-23T09:57:23.280Z,54.89
2023-05-23T09:59:54.530Z,54.99
2023-05-23T10:02:42.227Z,54.75
2023-05-23T10:05:17.137Z,53.51
2023-05-23T10:07:45.235Z,53.77
2023-05-23T10:10:13.428Z,53.48
2023-05-23T10:12:53.696Z,54.48
2023-05-23T10:15:23.875Z,53.54
2023-05-23T10:18:01.111Z,53.02
2023-05-23T10:20:34.036Z,53.14
2023-05-23T10:23:02.478Z,54.62
2023-05-23T10:25:29.704Z,53.99
2023-05-23T10:28:03.879Z,53.83
2023-05-23T10:30:32.273Z,53.57
2023-05-23T10:33:00.643Z,52.73
2023-05-23T10:36:09.171Z,50.50
2023-05-23T10:38:48.379Z,50.75
2023-05-23T10:41:18.642Z,50.07
2023-05-23T10:44:09.979Z,49.81
2023-05-23T10:46:58.583Z,48.58
2023-05-23T10:49:46.988Z,50.37
2023-05-23T10:52:16.769Z,51.52
2023-05-23T10:54:49.290Z,51.86
2023-05-23T10:57:18.863Z,53.15
2023-05-23T10:59:47.030Z,53.40
2023-05-23T11:02:16.051Z,54.62
2023-05-23T11:04:44.748Z,54.26
2023-05-23T11:07:29.821Z,55.49
2023-05-23T11:10:14.130Z,54.88
2023-05-23T11:12:44.245Z,54.86
2023-05-23T11:15:17.364Z,56.03
2023-05-23T11:17:55.428Z,55.47
2023-05-23T11:20:27.445Z,55.66
2023-05-23T11:23:05.523Z,56.63
2023-05-23T11:25:52.098Z,55.23
2023-05-23T11:28:20.068Z,55.48
2023-05-23T11:30:50.926Z,54.90
2023-05-23T11:33:18.267Z,56.24
2023-05-23T11:35:47.734Z,53.67
2023-05-23T11:38:18.358Z,53.69
2023-05-23T11:40:48.949Z,53.38
2023-05-23T11:43:18.004Z,53.67
2023-05-23T11:45:48.037Z,52.79
2023-05-23T11:48:16.917Z,53.19
2023-05-23T11:50:52.185Z,51.37
2023-05-23T11:53:21.783Z,51.01
2023-05-23T11:56:01.627Z,51.17
2023-05-23T11:58:31.114Z,51.03
2023-05-23T12:01:03.339Z,51.18
2023-05-23T12:03:34.474Z,51.41
2023-05-23T12:06:04.255Z,52.00
2023-05-23T12:08:31.384Z,51.05
2023-05-23T12:11:00.156Z,50.21
2023-05-23T12:13:30.429Z,50.60
2023-05-23T12:15:59.866Z,50.89
2023-05-23T12:18:32.789Z,50.70
2023-05-23T12:21:02.968Z,52.22
2023-05-23T12:23:31.772Z,52.02
2023-05-23T12:26:00.524Z,51.57
2023-05-23T12:28:38.912Z,52.54
2023-05-23T12:31:12.842Z,52.18
2023-05-23T12:33:41.300Z,51.77
2023-05-23T12:36:08.535Z,52.35
2023-05-23T12:38:38.065Z,53.41
2023-05-23T12:41:22.013Z,51.03
2023-05-23T12:43:51.916Z,52.55
2023-05-23T12:46:20.448Z,51.77
2023-05-23T12:48:47.721Z,52.25
2023-05-23T12:51:15.394Z,50.33
2023-05-23T12:53:42.809Z,49.75
2023-05-23T12:56:09.941Z,51.42
2023-05-23T12:58:37.220Z,48.83
2023-05-23T13:01:04.522Z,49.16
2023-05-23T13:03:31.927Z,48.11
2023-05-23T13:05:59.316Z,47.98
2023-05-23T13:08:29.889Z,46.75
2023-05-23T13:10:57.648Z,46.81
2023-05-23T13:13:26.768Z,46.87
2023-05-23T13:15:54.100Z,46.38
2023-05-23T13:18:21.404Z,45.87
2023-05-23T13:20:48.585Z,46.01
2023-05-23T13:23:15.970Z,45.73
2023-05-23T13:25:43.238Z,44.80
2023-05-23T13:28:10.600Z,44.14
2023-05-23T13:30:37.811Z,44.85
2023-05-23T13:33:05.189Z,45.21
2023-05-23T13:35:32.432Z,45.18
2023-05-23T13:37:59.610Z,42.63
2023-05-23T13:40:26.735Z,42.50
2023-05-23T13:42:53.941Z,43.11
2023-05-23T13:45:22.990Z,43.03
2023-05-23T13:47:50.369Z,41.88
2023-05-23T13:50:17.836Z,41.10
2023-05-23T13:52:48.253Z,41.28
2023-05-23T13:55:17.285Z,41.11
2023-05-23T13:57:44.806Z,41.04
2023-05-23T14:00:12.605Z,42.19
2023-05-23T14:02:39.910Z,41.28
2023-05-23T14:05:08.052Z,41.45
2023-05-23T14:07:35.449Z,41.05
2023-05-23T14:10:02.733Z,40.70
2023-05-23T14:12:29.872Z,40.48
2023-05-23T14:14:57.066Z,40.08
2023-05-23T14:17:24.288Z,40.46
2023-05-23T14:19:51.759Z,42.02
2023-05-23T14:22:18.909Z,41.48
2023-05-23T14:24:46.167Z,41.52
2023-05-23T14:27:13.353Z,41.82
2023-05-23T14:29:40.503Z,41.40
2023-05-23T14:32:07.724Z,42.45
2023-05-23T14:34:34.886Z,42.62
2023-05-23T14:37:02.012Z,41.83
2023-05-23T14:39:29.377Z,44.15
2023-05-23T14:41:56.739Z,42.86
2023-05-23T14:44:23.991Z,42.83
2023-05-23T14:46:51.482Z,42.88
2023-05-23T14:49:18.734Z,41.92
2023-05-23T14:51:51.116Z,41.83
2023-05-23T14:54:19.351Z,42.12
2023-05-23T14:56:46.672Z,42.68
2023-05-23T14:59:14.027Z,43.14
2023-05-23T15:01:41.636Z,43.91
2023-05-23T15:04:09.880Z,42.80
2023-05-23T15:06:39.075Z,43.15
2023-05-23T15:09:07.456Z,43.30
2023-05-23T15:11:42.274Z,42.63
2023-05-23T15:14:09.568Z,42.85
2023-05-23T15:16:37.398Z,43.62
2023-05-23T15:19:05.577Z,43.94
2023-05-23T15:21:32.858Z,43.80
2023-05-23T15:24:00.147Z,43.54
2023-05-23T15:26:27.510Z,42.91
2023-05-23T15:28:54.995Z,42.73
2023-05-23T15:31:22.376Z,42.50
2023-05-23T15:33:49.621Z,42.63
2023-05-23T15:36:16.800Z,42.00
2023-05-23T15:38:44.383Z,43.53
2023-05-23T15:41:11.813Z,41.01
2023-05-23T15:43:38.984Z,41.34
2023-05-23T15:46:06.281Z,40.89
2023-05-23T15:48:33.442Z,40.45
2023-05-23T15:51:00.669Z,40.76
2023-05-23T15:53:28.438Z,40.14
2023-05-23T15:55:56.919Z,39.47
2023-05-23T15:58:24.094Z,40.66
2023-05-23T16:00:51.352Z,39.96
2023-05-23T16:03:18.484Z,42.84
2023-05-23T16:05:46.123Z,40.24
2023-05-23T16:08:13.273Z,39.37
2023-05-23T16:10:40.552Z,39.91
2023-05-23T16:13:08.955Z,39.21
2023-05-23T16:15:36.112Z,38.95
2023-05-23T16:18:03.857Z,39.46
2023-05-23T16:20:31.133Z,38.55
2023-05-23T16:22:58.288Z,39.42
2023-05-23T16:25:25.541Z,38.41
2023-05-23T16:27:52.690Z,38.38
2023-05-23T16:30:20.207Z,39.47
2023-05-23T16:32:47.378Z,38.92
2023-05-23T16:35:14.608Z,38.78
2023-05-23T16:37:41.795Z,37.45
2023-05-23T16:40:09.209Z,37.39
2023-05-23T16:42:36.846Z,37.34
2023-05-23T16:45:04.802Z,36.88
2023-05-23T16:47:32.288Z,36.44
2023-05-23T16:49:59.536Z,36.10
2023-05-23T16:52:26.745Z,36.09
2023-05-23T16:54:55.692Z,36.44
2023-05-23T16:57:22.947Z,36.64
2023-05-23T16:59:50.137Z,36.10
2023-05-23T17:02:17.338Z,36.62
2023-05-23T17:04:45.019Z,36.49
2023-05-23T17:07:12.256Z,37.25
2023-05-23T17:09:39.749Z,37.02
2023-05-23T17:12:07.420Z,37.50
2023-05-23T17:14:34.700Z,38.16
2023-05-23T17:17:03.415Z,37.78
2023-05-23T17:19:30.753Z,38.95
2023-05-23T17:22:00.955Z,39.64
2023-05-23T17:24:28.522Z,39.96
2023-05-23T17:26:55.665Z,39.88
2023-05-23T17:29:22.822Z,40.33
2023-05-23T17:31:50.011Z,40.78
2023-05-23T17:37:22.782Z,41.28
2023-05-23T17:39:59.479Z,41.47
2023-05-23T17:43:00.194Z,40.91
2023-05-23T17:46:34.137Z,42.50
2023-05-23T17:49:07.852Z,42.13
2023-05-23T17:51:39.259Z,44.64
2023-05-23T17:54:07.195Z,42.99
2023-05-23T17:56:34.422Z,42.78
2023-05-23T17:59:15.080Z,42.82
2023-05-23T18:01:53.254Z,42.38
2023-05-23T18:04:24.511Z,42.75
2023-05-23T18:06:51.928Z,44.90
2023-05-23T18:09:19.766Z,44.74
2023-05-23T18:11:47.198Z,43.46
2023-05-23T18:14:14.751Z,44.08
2023-05-23T18:16:42.251Z,43.39
2023-05-23T18:19:09.768Z,43.62
2023-05-23T18:21:45.250Z,44.22
2023-05-23T18:24:18.296Z,45.10
2023-05-23T18:26:46.321Z,44.43
2023-05-23T18:29:31.723Z,45.12
2023-05-23T18:31:59.021Z,44.42
2023-05-23T18:34:29.428Z,45.54
2023-05-23T18:36:56.778Z,45.71
2023-05-23T18:39:24.241Z,46.49
2023-05-23T18:41:57.924Z,46.88
2023-05-23T18:44:25.361Z,47.82
2023-05-23T18:46:52.827Z,46.51
2023-05-23T18:49:20.222Z,46.71
2023-05-23T18:51:47.766Z,47.64
2023-05-23T18:54:15.176Z,47.30
2023-05-23T18:56:59.018Z,47.61
2023-05-23T18:59:27.049Z,47.68
2023-05-23T19:01:54.415Z,47.84
2023-05-23T19:04:31.266Z,47.53
2023-05-23T19:06:58.638Z,49.41
2023-05-23T19:09:28.764Z,48.62
2023-05-23T19:12:04.473Z,49.27
2023-05-23T19:14:31.797Z,50.96
2023-05-23T19:16:59.913Z,49.67
2023-05-23T19:19:30.038Z,50.26
2023-05-23T19:21:59.047Z,50.01
2023-05-23T19:24:27.502Z,50.90
2023-05-23T19:26:56.209Z,50.21
2023-05-23T19:29:23.703Z,51.69
2023-05-23T19:31:51.034Z,51.56
2023-05-23T19:34:18.351Z,51.08
2023-05-23T19:36:45.731Z,52.42
2023-05-23T19:39:13.065Z,51.90
2023-05-23T19:41:48.879Z,53.19
2023-05-23T19:44:16.270Z,54.03
2023-05-23T19:46:43.742Z,53.44
2023-05-23T19:49:12.016Z,53.18
2023-05-23T19:51:39.338Z,54.73
2023-05-23T19:54:06.738Z,53.54
2023-05-23T19:56:35.896Z,55.68
2023-05-23T19:59:03.295Z,55.03
2023-05-23T20:01:34.170Z,55.34
2023-05-23T20:04:13.254Z,55.16
2023-05-23T20:06:58.917Z,54.81
2023-05-23T20:09:28.889Z,55.45
2023-05-23T20:11:59.388Z,56.01
2023-05-23T20:14:28.161Z,54.66
2023-05-23T20:16:56.592Z,55.46
2023-05-23T20:19:24.345Z,56.81
2023-05-23T20:22:21.806Z,56.25
2023-05-23T20:24:49.127Z,57.16
2023-05-23T20:27:18.046Z,56.76
2023-05-23T20:29:51.616Z,57.24
2023-05-23T20:32:28.480Z,56.38
2023-05-23T20:35:18.650Z,57.77
2023-05-23T20:37:51.316Z,57.97
2023-05-23T20:40:18.713Z,56.47
2023-05-23T20:42:46.250Z,57.80
2023-05-23T20:45:14.054Z,57.71
2023-05-23T20:47:42.356Z,58.12
2023-05-23T20:50:11.866Z,57.97
2023-05-23T20:52:41.414Z,56.85
2023-05-23T20:55:10.008Z,57.48
2023-05-23T20:57:37.834Z,57.07
2023-05-23T21:00:13.123Z,58.89
2023-05-23T21:02:41.708Z,59.54
2023-05-23T21:05:10.740Z,58.94
2023-05-23T21:07:38.491Z,59.48
2023-05-23T21:10:06.480Z,58.87
2023-05-23T21:12:33.977Z,59.37
2023-05-23T21:15:17.689Z,59.07
2023-05-23T21:17:45.768Z,59.83
2023-05-23T21:20:13.504Z,59.60
2023-05-23T21:22:41.125Z,60.34
2023-05-23T21:25:08.859Z,59.71
2023-05-23T21:27:36.062Z,59.99
2023-05-23T21:30:05.256Z,59.46
2023-05-23T21:32:33.132Z,59.84
2023-05-23T21:35:00.497Z,60.64
2023-05-23T21:37:30.467Z,62.64
2023-05-23T21:39:57.775Z,60.40
2023-05-23T21:42:25.619Z,62.33
2023-05-23T21:44:52.961Z,61.00
2023-05-23T21:47:21.387Z,60.11
2023-05-23T21:49:48.821Z,60.43
2023-05-23T21:52:16.509Z,60.52
2023-05-23T21:54:45.971Z,60.14
2023-05-23T21:57:13.403Z,59.51
2023-05-23T21:59:41.671Z,59.96
2023-05-23T22:02:09.010Z,60.04
2023-05-23T22:04:37.026Z,59.92
2023-05-23T22:07:07.075Z,59.97
2023-05-23T22:09:34.591Z,59.71
2023-05-23T22:12:05.655Z,59.06
2023-05-23T22:14:36.277Z,59.42
2023-05-23T22:17:04.643Z,59.43
2023-05-23T22:19:31.855Z,59.08
2023-05-23T22:21:59.223Z,59.50
2023-05-23T22:24:32.929Z,60.27
2023-05-23T22:27:03.349Z,62.73
2023-05-23T22:29:31.060Z,61.19
2023-05-23T22:31:58.437Z,60.69
2023-05-23T22:34:25.800Z,60.22
2023-05-23T22:36:53.189Z,59.34
2023-05-23T22:39:20.488Z,60.53
2023-05-23T22:41:56.028Z,60.70
2023-05-23T22:44:28.041Z,59.68
2023-05-23T22:47:24.292Z,60.50
2023-05-23T22:50:04.304Z,60.43
2023-05-23T22:52:37.109Z,60.35
2023-05-23T22:55:08.404Z,59.64
2023-05-23T22:57:40.835Z,59.69
2023-05-23T23:00:11.391Z,59.17
2023-05-23T23:02:38.955Z,59.74
2023-05-23T23:05:06.832Z,59.78
2023-05-23T23:07:34.218Z,59.47
2023-05-23T23:10:01.895Z,60.03
2023-05-23T23:12:29.372Z,59.35
2023-05-23T23:14:56.773Z,59.50
2023-05-23T23:17:24.171Z,59.22
2023-05-23T23:19:51.596Z,59.14
2023-05-23T23:22:21.528Z,57.94
2023-05-23T23:24:55.822Z,57.98
2023-05-23T23:27:30.974Z,58.38
2023-05-23T23:29:59.198Z,58.10
2023-05-23T23:32:26.849Z,57.66
2023-05-23T23:34:54.198Z,58.24
2023-05-23T23:37:21.726Z,60.76
2023-05-23T23:39:49.057Z,59.71
2023-05-23T23:45:04.596Z,58.83
2023-05-23T23:47:47.839Z,59.36
2023-05-23T23:50:15.494Z,59.23
2023-05-23T23:52:45.983Z,58.66
2023-05-23T23:55:13.430Z,58.85
2023-05-23T23:57:41.077Z,57.94
